Map

Track Data

SID SEASON NUMBER BASIN SUBBASIN NAME ISO_TIME NATURE LAT LON WMO_WIND WMO_PRES WMO_AGENCY TRACK_TYPE DIST2LAND LANDFALL IFLAG USA_AGENCY USA_ATCF_ID USA_LAT USA_LON USA_RECORD USA_STATUS USA_WIND USA_PRES USA_SSHS USA_R34_NE USA_R34_SE USA_R34_SW USA_R34_NW USA_R50_NE USA_R50_SE USA_R50_SW USA_R50_NW USA_R64_NE USA_R64_SE USA_R64_SW USA_R64_NW USA_POCI USA_ROCI USA_RMW USA_EYE TOKYO_LAT TOKYO_LON TOKYO_GRADE TOKYO_WIND TOKYO_PRES TOKYO_R50_DIR TOKYO_R50_LONG TOKYO_R50_SHORT TOKYO_R30_DIR TOKYO_R30_LONG TOKYO_R30_SHORT TOKYO_LAND CMA_LAT CMA_LON CMA_CAT CMA_WIND CMA_PRES HKO_LAT HKO_LON HKO_CAT HKO_WIND HKO_PRES NEWDELHI_LAT NEWDELHI_LON NEWDELHI_GRADE NEWDELHI_WIND NEWDELHI_PRES NEWDELHI_CI NEWDELHI_DP NEWDELHI_POCI REUNION_LAT REUNION_LON REUNION_TYPE REUNION_WIND REUNION_PRES REUNION_TNUM REUNION_CI REUNION_RMW REUNION_R34_NE REUNION_R34_SE REUNION_R34_SW REUNION_R34_NW REUNION_R50_NE REUNION_R50_SE REUNION_R50_SW REUNION_R50_NW REUNION_R64_NE REUNION_R64_SE REUNION_R64_SW REUNION_R64_NW BOM_LAT BOM_LON BOM_TYPE BOM_WIND BOM_PRES BOM_TNUM BOM_CI BOM_RMW BOM_R34_NE BOM_R34_SE BOM_R34_SW BOM_R34_NW BOM_R50_NE BOM_R50_SE BOM_R50_SW BOM_R50_NW BOM_R64_NE BOM_R64_SE BOM_R64_SW BOM_R64_NW BOM_ROCI BOM_POCI BOM_EYE BOM_POS_METHOD BOM_PRES_METHOD NADI_LAT NADI_LON NADI_CAT NADI_WIND NADI_PRES WELLINGTON_LAT WELLINGTON_LON WELLINGTON_WIND WELLINGTON_PRES DS824_LAT DS824_LON DS824_STAGE DS824_WIND DS824_PRES TD9636_LAT TD9636_LON TD9636_STAGE TD9636_WIND TD9636_PRES TD9635_LAT TD9635_LON TD9635_WIND TD9635_PRES TD9635_ROCI NEUMANN_LAT NEUMANN_LON NEUMANN_CLASS NEUMANN_WIND NEUMANN_PRES MLC_LAT MLC_LON MLC_CLASS MLC_WIND MLC_PRES USA_GUST BOM_GUST BOM_GUST_PER REUNION_GUST REUNION_GUST_PER USA_SEAHGT USA_SEARAD_NE USA_SEARAD_SE USA_SEARAD_SW USA_SEARAD_NW STORM_SPEED STORM_DIR
1961250N17248 1961 90 EP MM ORLA 1961-09-06 12:00:00 TS 17.3000 -112.100 45 hurdat_epa main 663 646 O________OO___ hurdat_epa EP061961 17.3000 -112.100 TS 45 0 17.3000 -112.100 TC 45 17.3000 -112.100 2 6 322
1961250N17248 1961 90 EP MM ORLA 1961-09-06 15:00:00 TS 17.5466 -112.305 main 649 627 P________PP___ EP061961 17.5375 -112.307 TS 45 0 17.5375 -112.307 TC 45 17.5830 -112.295 2 6 324
1961250N17248 1961 90 EP MM ORLA 1961-09-06 18:00:00 TS 17.8125 -112.496 45 hurdat_epa main 627 601 O________OP___ hurdat_epa EP061961 17.8000 -112.500 TS 45 0 17.8000 -112.500 TC 45 17.8627 -112.482 2 7 329
1961250N17248 1961 90 EP MM ORLA 1961-09-06 21:00:00 TS 18.1072 -112.663 main 605 581 P________PP___ EP061961 18.1000 -112.665 TS 45 0 18.1000 -112.665 TC 45 18.1361 -112.653 2 7 334
1961250N17248 1961 90 EP MM ORLA 1961-09-07 00:00:00 TS 18.4000 -112.800 45 hurdat_epa main 581 567 O________OO___ hurdat_epa EP061961 18.4000 -112.800 TS 45 0 18.4000 -112.800 TC 45 18.4000 -112.800 2 6 336
1961250N17248 1961 90 EP MM ORLA 1961-09-07 03:00:00 TS 18.6566 -112.915 main 558 545 P________PP___ EP061961 18.6575 -112.915 TS 45 0 18.6575 -112.915 TC 45 18.6530 -112.916 2 5 339
1961250N17248 1961 90 EP MM ORLA 1961-09-07 06:00:00 TS 18.9000 -113.001 45 hurdat_epa main 545 526 O________OP___ hurdat_epa EP061961 18.9000 -113.000 TS 45 0 18.9000 -113.000 TC 45 18.8999 -113.003 2 5 344
1961250N17248 1961 90 EP MM ORLA 1961-09-07 09:00:00 TS 19.1494 -113.065 main 532 506 P________PP___ EP061961 19.1500 -113.065 TS 45 0 19.1500 -113.065 TC 45 19.1468 -113.063 2 5 349
1961250N17248 1961 90 EP MM ORLA 1961-09-07 12:00:00 TS 19.4000 -113.100 45 hurdat_epa main 506 489 O________OO___ hurdat_epa EP061961 19.4000 -113.100 TS 45 0 19.4000 -113.100 TC 45 19.4000 -113.100 2 5 356
1961250N17248 1961 90 EP MM ORLA 1961-09-07 15:00:00 TS 19.6467 -113.109 main 489 464 P________PP___ EP061961 19.6425 -113.108 TS 45 0 19.6425 -113.108 TC 45 19.6637 -113.114 2 5 0
1961250N17248 1961 90 EP MM ORLA 1961-09-07 18:00:00 TS 19.9070 -113.102 45 hurdat_epa main 464 440 O________OP___ hurdat_epa EP061961 19.9000 -113.100 TS 45 0 19.9000 -113.100 TC 45 19.9350 -113.108 2 6 0
1961250N17248 1961 90 EP MM ORLA 1961-09-07 21:00:00 TS 20.1967 -113.094 main 440 417 P________PP___ EP061961 20.1925 -113.093 TS 45 0 20.1925 -113.093 TC 45 20.2137 -113.098 2 6 2
1961250N17248 1961 90 EP MM ORLA 1961-09-08 00:00:00 TS 20.5000 -113.100 45 hurdat_epa main 417 396 O________OO___ hurdat_epa EP061961 20.5000 -113.100 TS 45 0 20.5000 -113.100 TC 45 20.5000 -113.100 2 6 356
1961250N17248 1961 90 EP MM ORLA 1961-09-08 03:00:00 TS 20.7994 -113.139 main 396 386 P________PP___ EP061961 20.8000 -113.142 TS 45 0 20.8000 -113.142 TC 45 20.7969 -113.128 2 6 352
1961250N17248 1961 90 EP MM ORLA 1961-09-08 06:00:00 TS 21.1000 -113.194 45 hurdat_epa main 386 369 O________OP___ hurdat_epa EP061961 21.1000 -113.200 TS 45 0 21.1000 -113.200 TC 45 21.1000 -113.170 2 6 351
1961250N17248 1961 90 EP MM ORLA 1961-09-08 09:00:00 TS 21.4006 -113.240 main 369 348 P________PP___ EP061961 21.4000 -113.243 TS 45 0 21.4000 -113.243 TC 45 21.4031 -113.228 2 6 351
1961250N17248 1961 90 EP MM ORLA 1961-09-08 12:00:00 TS 21.7000 -113.300 45 hurdat_epa main 348 323 O________OO___ hurdat_epa EP061961 21.7000 -113.300 TS 45 0 21.7000 -113.300 TC 45 21.7000 -113.300 2 6 347
1961250N17248 1961 90 EP MM ORLA 1961-09-08 15:00:00 TS 22.0016 -113.390 main 323 300 P________PP___ EP061961 22.0075 -113.392 TS 45 0 22.0075 -113.392 TC 45 21.9781 -113.382 2 6 343
1961250N17248 1961 90 EP MM ORLA 1961-09-08 18:00:00 TS 22.2900 -113.496 45 hurdat_epa main 300 289 O________OP___ hurdat_epa EP061961 22.3000 -113.500 TS 45 0 22.3000 -113.500 TC 45 22.2500 -113.478 2 6 341
1961250N17248 1961 90 EP MM ORLA 1961-09-08 21:00:00 TS 22.5444 -113.597 main 289 267 P________PP___ EP061961 22.5500 -113.600 TS 45 0 22.5500 -113.600 TC 45 22.5219 -113.585 2 5 340
1961250N17248 1961 90 EP MM ORLA 1961-09-09 00:00:00 TS 22.8000 -113.700 45 hurdat_epa main 267 248 O________OO___ hurdat_epa EP061961 22.8000 -113.700 TS 45 0 22.8000 -113.700 TC 45 22.8000 -113.700 2 6 341
1961250N17248 1961 90 EP MM ORLA 1961-09-09 03:00:00 TS 23.0942 -113.798 main 248 232 P________PP___ EP061961 23.0925 -113.793 TS 45 0 23.0925 -113.793 TC 45 23.1009 -113.818 2 6 342
1961250N17248 1961 90 EP MM ORLA 1961-09-09 06:00:00 TS 23.4015 -113.909 45 hurdat_epa main 232 219 O________OP___ hurdat_epa EP061961 23.4000 -113.900 TS 45 0 23.4000 -113.900 TC 45 23.4075 -113.943 2 7 339
1961250N17248 1961 90 EP MM ORLA 1961-09-09 09:00:00 TS 23.7081 -114.048 main 219 217 P________PP___ EP061961 23.7075 -114.042 TS 45 0 23.7075 -114.042 TC 45 23.7103 -114.071 2 7 336
1961250N17248 1961 90 EP MM ORLA 1961-09-09 12:00:00 TS 24.0000 -114.200 45 hurdat_epa main 221 216 O________OO___ hurdat_epa EP061961 24.0000 -114.200 TS 45 0 24.0000 -114.200 TC 45 24.0000 -114.200 2 6 333
1961250N17248 1961 90 EP MM ORLA 1961-09-09 15:00:00 TS 24.2572 -114.351 main 229 226 P________PP___ EP061961 24.2575 -114.358 TS 45 0 24.2575 -114.358 TC 45 24.2562 -114.325 2 6 332
1961250N17248 1961 90 EP MM ORLA 1961-09-09 18:00:00 TS 24.5000 -114.490 45 hurdat_epa main 234 233 O________OP___ hurdat_epa EP061961 24.5000 -114.500 TS 45 0 24.5000 -114.500 TC 45 24.5000 -114.450 2 5 335
1961250N17248 1961 90 EP MM ORLA 1961-09-09 21:00:00 TS 24.7427 -114.601 main 242 219 P________PP___ EP061961 24.7425 -114.608 TS 45 0 24.7425 -114.608 TC 45 24.7437 -114.575 2 5 339
1961250N17248 1961 90 EP MM ORLA 1961-09-10 00:00:00 TS 25.0000 -114.700 45 hurdat_epa main 219 197 O________OO___ hurdat_epa EP061961 25.0000 -114.700 TS 45 0 25.0000 -114.700 TC 45 25.0000 -114.700 2 6 342
1961250N17248 1961 90 EP MM ORLA 1961-09-10 03:00:00 TS 25.2919 -114.799 main 197 178 P________PP___ EP061961 25.2925 -114.793 TS 45 0 25.2925 -114.793 TC 45 25.2897 -114.825 2 6 342
1961250N17248 1961 90 EP MM ORLA 1961-09-10 06:00:00 TS 25.5985 -114.910 45 hurdat_epa main 178 155 O________OP___ hurdat_epa EP061961 25.6000 -114.900 TS 45 0 25.6000 -114.900 TC 45 25.5925 -114.950 2 7 339
1961250N17248 1961 90 EP MM ORLA 1961-09-10 09:00:00 TS 25.8998 -115.055 main 161 137 P________PP___ EP061961 25.9000 -115.050 TS 45 0 25.9000 -115.050 TC 45 25.8990 -115.075 2 7 337
1961250N17248 1961 90 EP MM ORLA 1961-09-10 12:00:00 TS 26.2000 -115.200 45 hurdat_epa main 137 118 O________OO___ hurdat_epa EP061961 26.2000 -115.200 TS 45 0 26.2000 -115.200 TC 45 26.2000 -115.200 2 6 340
1961250N17248 1961 90 EP MM ORLA 1961-09-10 15:00:00 TS 26.5036 -115.305 main 118 107 P________PP___ EP061961 26.5075 -115.300 TS 45 0 26.5075 -115.300 TC 45 26.4882 -115.325 2 6 342
1961250N17248 1961 90 EP MM ORLA 1961-09-10 18:00:00 TS 26.7930 -115.410 45 hurdat_epa main 107 92 O________OP___ hurdat_epa EP061961 26.8000 -115.400 TS 45 0 26.8000 -115.400 TC 45 26.7651 -115.450 2 6 339
1961250N17248 1961 90 EP MM ORLA 1961-09-10 21:00:00 TS 27.0549 -115.545 main 83 81 P________PP___ EP061961 27.0601 -115.537 TS 45 0 27.0601 -115.537 TC 45 27.0345 -115.575 2 6 333
1961250N17248 1961 90 EP MM ORLA 1961-09-11 00:00:00 TS 27.3000 -115.700 45 hurdat_epa main 82 O________OO___ hurdat_epa EP061961 27.3000 -115.700 TS 45 0 27.3000 -115.700 TC 45 27.3000 -115.700 2 6 331

About IBTrACS Database

This database is a web-friendly format of International Best Track Archive for Climate Stewardship (IBTrACS), a global best track data archive curated by NOAA dating back to 1842.

Updated: 2021-10-21